createdAt,value
2023-03-01T00:01:29.972Z,102966.94
2023-03-01T00:03:57.857Z,102966.19
2023-03-01T00:06:25.278Z,102971.31
2023-03-01T00:08:52.480Z,102964.28
2023-03-01T00:11:29.551Z,102965.66
2023-03-01T00:13:59.777Z,102972.22
2023-03-01T00:16:36.689Z,102967.88
2023-03-01T00:19:03.993Z,102968.63
2023-03-01T00:21:31.053Z,102954.13
2023-03-01T00:23:58.815Z,102963.00
2023-03-01T00:26:26.919Z,102958.13
2023-03-01T00:28:56.276Z,102954.78
2023-03-01T00:31:25.947Z,102946.97
2023-03-01T00:33:58.274Z,102941.72
2023-03-01T00:36:29.642Z,102940.81
2023-03-01T00:38:57.329Z,102944.53
2023-03-01T00:41:25.072Z,102926.97
2023-03-01T00:43:52.017Z,102924.31
2023-03-01T00:46:22.896Z,102926.75
2023-03-01T00:48:50.205Z,102937.88
2023-03-01T00:51:21.565Z,102928.53
2023-03-01T00:53:51.797Z,102937.00
2023-03-01T00:56:19.543Z,102917.78
2023-03-01T00:58:46.425Z,102920.59
2023-03-01T01:01:23.965Z,102923.03
2023-03-01T01:03:57.099Z,102931.63
2023-03-01T01:06:34.484Z,102918.66
2023-03-01T01:09:02.144Z,102906.38
2023-03-01T01:11:30.546Z,102908.19
2023-03-01T01:13:58.556Z,102903.31
2023-03-01T01:16:27.721Z,102915.63
2023-03-01T01:18:55.948Z,102915.22
2023-03-01T01:21:25.044Z,102911.13
2023-03-01T01:23:52.285Z,102907.16
2023-03-01T01:26:26.880Z,102908.31
2023-03-01T01:28:55.254Z,102913.41
2023-03-01T01:31:24.682Z,102917.66
2023-03-01T01:33:53.394Z,102913.19
2023-03-01T01:36:20.450Z,102916.63
2023-03-01T01:38:47.368Z,102918.94
2023-03-01T01:41:15.392Z,102907.31
2023-03-01T01:43:46.570Z,102913.56
2023-03-01T01:46:32.539Z,102918.06
2023-03-01T01:49:24.495Z,102912.94
2023-03-01T01:51:59.004Z,102900.91
2023-03-01T01:54:39.546Z,102902.53
2023-03-01T01:57:13.761Z,102895.66
2023-03-01T01:59:44.718Z,102893.88
2023-03-01T02:02:13.026Z,102901.41
2023-03-01T02:04:40.415Z,102897.19
2023-03-01T02:07:19.550Z,102897.97
2023-03-01T02:09:51.059Z,102889.75
2023-03-01T02:12:23.177Z,102894.50
2023-03-01T02:14:50.180Z,102903.06
2023-03-01T02:17:18.813Z,102901.28
2023-03-01T02:20:15.847Z,102902.19
2023-03-01T02:22:46.100Z,102896.28
2023-03-01T02:25:40.400Z,102899.00
2023-03-01T02:28:27.556Z,102901.56
2023-03-01T02:31:13.283Z,102906.66
2023-03-01T02:33:40.942Z,102894.63
2023-03-01T02:36:15.339Z,102891.03
2023-03-01T02:38:43.569Z,102891.94
2023-03-01T02:41:13.085Z,102890.91
2023-03-01T02:43:40.117Z,102900.28
2023-03-01T02:46:21.056Z,102890.53
2023-03-01T02:48:55.150Z,102893.84
2023-03-01T02:51:34.348Z,102894.63
2023-03-01T02:54:26.184Z,102886.81
2023-03-01T02:56:54.259Z,102884.25
2023-03-01T02:59:28.719Z,102890.13
2023-03-01T03:01:55.698Z,102874.63
2023-03-01T03:04:22.645Z,102874.63
2023-03-01T03:06:52.013Z,102868.63
2023-03-01T03:09:19.962Z,102857.75
2023-03-01T03:11:47.634Z,102853.41
2023-03-01T03:14:17.694Z,102867.34
2023-03-01T03:16:51.583Z,102859.44
2023-03-01T03:19:20.144Z,102849.19
2023-03-01T03:21:47.334Z,102838.16
2023-03-01T03:24:14.232Z,102846.50
2023-03-01T03:26:41.119Z,102837.16
2023-03-01T03:29:08.022Z,102822.19
2023-03-01T03:31:35.226Z,102833.97
2023-03-01T03:34:02.133Z,102833.97
2023-03-01T03:36:29.170Z,102834.97
2023-03-01T03:38:56.173Z,102838.44
2023-03-01T03:41:23.129Z,102833.31
2023-03-01T03:43:50.159Z,102828.06
2023-03-01T03:46:17.981Z,102827.94
2023-03-01T03:48:46.108Z,102827.03
2023-03-01T03:51:15.903Z,102822.16
2023-03-01T03:53:43.636Z,102821.28
2023-03-01T03:56:12.720Z,102821.41
2023-03-01T03:58:39.614Z,102812.84
2023-03-01T04:01:06.737Z,102823.97
2023-03-01T04:03:35.938Z,102818.84
2023-03-01T04:06:05.099Z,102818.84
2023-03-01T04:08:32.447Z,102807.44
2023-03-01T04:11:22.238Z,102815.50
2023-03-01T04:13:49.390Z,102808.63
2023-03-01T04:16:16.725Z,102808.72
2023-03-01T04:18:43.672Z,102815.75
2023-03-01T04:21:12.214Z,102796.47
2023-03-01T04:23:40.043Z,102824.59
2023-03-01T04:26:06.934Z,102823.97
2023-03-01T04:28:36.857Z,102828.94
2023-03-01T04:31:14.473Z,102819.88
2023-03-01T04:33:44.778Z,102832.03
2023-03-01T04:36:13.310Z,102832.91
2023-03-01T04:38:40.878Z,102816.53
2023-03-01T04:41:11.148Z,102826.38
2023-03-01T04:43:38.212Z,102813.94
2023-03-01T04:46:10.194Z,102813.28
2023-03-01T04:48:39.562Z,102806.50
2023-03-01T04:51:07.116Z,102793.59
2023-03-01T04:53:34.163Z,102811.34
2023-03-01T04:56:01.075Z,102805.59
2023-03-01T04:58:29.389Z,102808.13
2023-03-01T05:00:56.402Z,102804.03
2023-03-01T05:03:23.806Z,102818.00
2023-03-01T05:05:53.378Z,102795.84
2023-03-01T05:08:21.676Z,102783.28
2023-03-01T05:10:53.993Z,102775.72
2023-03-01T05:13:22.049Z,102777.50
2023-03-01T05:15:56.633Z,102775.97
2023-03-01T05:18:27.951Z,102773.63
2023-03-01T05:20:57.242Z,102777.22
2023-03-01T05:23:24.413Z,102773.88
2023-03-01T05:25:53.226Z,102778.34
2023-03-01T05:28:21.211Z,102764.78
2023-03-01T05:30:48.481Z,102761.72
2023-03-01T05:33:15.438Z,102776.03
2023-03-01T05:35:44.179Z,102768.66
2023-03-01T05:38:15.462Z,102788.84
2023-03-01T05:40:48.751Z,102783.72
2023-03-01T05:43:17.807Z,102784.50
2023-03-01T05:45:45.117Z,102789.75
2023-03-01T05:48:13.429Z,102794.97
2023-03-01T05:50:45.707Z,102790.63
2023-03-01T05:53:17.313Z,102789.75
2023-03-01T05:55:45.274Z,102767.63
2023-03-01T05:58:16.130Z,102790.00
2023-03-01T06:00:45.398Z,102782.31
2023-03-01T06:03:14.722Z,102782.44
2023-03-01T06:05:42.792Z,102778.56
2023-03-01T06:08:12.162Z,102790.34
2023-03-01T06:10:39.109Z,102791.13
2023-03-01T06:13:06.234Z,102804.28
2023-03-01T06:15:33.259Z,102797.41
2023-03-01T06:18:00.509Z,102792.50
2023-03-01T06:20:29.734Z,102797.88
2023-03-01T06:22:57.119Z,102808.34
2023-03-01T06:25:26.787Z,102806.72
2023-03-01T06:27:53.820Z,102802.25
2023-03-01T06:30:24.492Z,102796.69
2023-03-01T06:32:51.958Z,102803.06
2023-03-01T06:35:20.620Z,102805.13
2023-03-01T06:37:48.806Z,102801.09
2023-03-01T06:40:17.050Z,102787.63
2023-03-01T06:42:50.056Z,102784.41
2023-03-01T06:45:19.967Z,102783.75
2023-03-01T06:47:47.306Z,102765.56
2023-03-01T06:50:15.323Z,102786.78
2023-03-01T06:52:42.289Z,102790.63
2023-03-01T06:55:09.475Z,102793.41
2023-03-01T06:57:36.374Z,102793.66
2023-03-01T07:00:05.523Z,102799.13
2023-03-01T07:02:32.471Z,102796.66
2023-03-01T07:04:59.383Z,102791.91
2023-03-01T07:07:26.273Z,102793.03
2023-03-01T07:09:54.172Z,102802.88
2023-03-01T07:12:21.063Z,102796.28
2023-03-01T07:14:47.960Z,102798.31
2023-03-01T07:17:14.876Z,102802.94
2023-03-01T07:19:41.731Z,102809.16
2023-03-01T07:22:11.358Z,102806.81
2023-03-01T07:24:38.224Z,102800.38
2023-03-01T07:27:05.109Z,102802.41
2023-03-01T07:29:32.014Z,102801.19
2023-03-01T07:31:59.483Z,102800.75
2023-03-01T07:34:26.818Z,102808.00
2023-03-01T07:36:53.735Z,102812.97
2023-03-01T07:39:20.657Z,102806.59
2023-03-01T07:41:47.590Z,102807.81
2023-03-01T07:44:14.529Z,102802.25
2023-03-01T07:46:41.478Z,102803.59
2023-03-01T07:49:08.415Z,102796.34
2023-03-01T07:51:35.324Z,102800.91
2023-03-01T07:54:02.174Z,102800.44
2023-03-01T07:56:29.319Z,102795.75
2023-03-01T07:58:56.412Z,102786.84
2023-03-01T08:01:23.680Z,102785.34
2023-03-01T08:03:50.591Z,102771.72
2023-03-01T08:06:18.626Z,102787.03
2023-03-01T08:08:46.131Z,102783.19
2023-03-01T08:11:15.363Z,102783.66
2023-03-01T08:13:42.975Z,102785.75
2023-03-01T08:16:15.364Z,102768.66
2023-03-01T08:18:43.715Z,102785.81
2023-03-01T08:21:14.007Z,102776.75
2023-03-01T08:23:41.691Z,102772.25
2023-03-01T08:26:21.477Z,102771.91
2023-03-01T08:28:49.794Z,102776.75
2023-03-01T08:31:30.742Z,102775.50
2023-03-01T08:34:01.407Z,102777.59
2023-03-01T08:36:41.017Z,102770.41
2023-03-01T08:39:09.366Z,102776.88
2023-03-01T08:41:36.714Z,102767.84
2023-03-01T08:44:04.470Z,102754.97
2023-03-01T08:46:38.172Z,102761.75
2023-03-01T08:49:09.885Z,102770.78
2023-03-01T08:51:39.885Z,102779.06
2023-03-01T08:54:12.304Z,102781.25
2023-03-01T08:56:39.522Z,102763.41
2023-03-01T08:59:06.448Z,102779.69
2023-03-01T09:01:33.355Z,102780.19
2023-03-01T09:04:00.709Z,102774.63
2023-03-01T09:06:27.693Z,102774.13
2023-03-01T09:08:55.722Z,102761.44
2023-03-01T09:11:23.260Z,102763.91
2023-03-01T09:13:51.292Z,102754.84
2023-03-01T09:16:20.683Z,102755.44
2023-03-01T09:18:52.639Z,102753.34
2023-03-01T09:21:37.262Z,102766.03
2023-03-01T09:24:07.338Z,102765.78
2023-03-01T09:26:34.384Z,102764.69
2023-03-01T09:29:01.250Z,102771.19
2023-03-01T09:31:28.209Z,102766.53
2023-03-01T09:33:55.833Z,102765.38
2023-03-01T09:36:26.266Z,102766.75
2023-03-01T09:38:56.276Z,102768.97
2023-03-01T09:41:50.291Z,102771.22
2023-03-01T09:44:31.681Z,102769.16
2023-03-01T09:47:00.209Z,102775.72
2023-03-01T09:49:31.566Z,102775.34
2023-03-01T09:52:16.805Z,102776.78
2023-03-01T09:54:43.709Z,102772.22
2023-03-01T09:57:19.655Z,102766.44
2023-03-01T10:00:11.597Z,102762.84
2023-03-01T10:02:57.936Z,102761.56
2023-03-01T10:06:08.653Z,102746.53
2023-03-01T10:09:02.091Z,102757.41
2023-03-01T10:11:38.483Z,102753.53
2023-03-01T10:14:47.906Z,102753.22
2023-03-01T10:17:38.779Z,102748.66
2023-03-01T10:20:43.000Z,102742.91
2023-03-01T10:23:10.921Z,102744.47
2023-03-01T10:26:21.704Z,102751.03
2023-03-01T10:29:11.589Z,102743.66
2023-03-01T10:31:48.972Z,102743.34
2023-03-01T10:34:32.120Z,102744.72
2023-03-01T10:37:16.722Z,102737.34
2023-03-01T10:39:57.044Z,102731.66
2023-03-01T10:42:31.447Z,102730.84
2023-03-01T10:44:59.922Z,102731.38
2023-03-01T10:47:28.807Z,102729.16
2023-03-01T10:50:06.152Z,102729.50
2023-03-01T10:52:38.963Z,102725.53
2023-03-01T10:55:17.689Z,102720.47
2023-03-01T10:57:44.618Z,102724.34
2023-03-01T11:00:23.989Z,102717.66
2023-03-01T11:02:59.985Z,102720.59
2023-03-01T11:05:30.962Z,102715.75
2023-03-01T11:08:00.245Z,102714.34
2023-03-01T11:10:30.867Z,102721.69
2023-03-01T11:13:30.031Z,102717.69
2023-03-01T11:16:03.163Z,102709.16
2023-03-01T11:18:46.162Z,102715.69
2023-03-01T11:21:16.727Z,102716.94
2023-03-01T11:23:46.630Z,102712.88
2023-03-01T11:26:14.731Z,102708.81
2023-03-01T11:28:43.754Z,102716.91
2023-03-01T11:31:13.616Z,102720.66
2023-03-01T11:33:55.236Z,102713.97
2023-03-01T11:37:04.072Z,102713.38
2023-03-01T11:39:50.179Z,102711.03
2023-03-01T11:42:25.307Z,102719.13
2023-03-01T11:44:56.678Z,102712.44
2023-03-01T11:47:59.328Z,102707.38
2023-03-01T11:50:43.205Z,102710.22
2023-03-01T11:53:31.057Z,102713.97
2023-03-01T11:56:18.280Z,102699.47
2023-03-01T11:59:12.666Z,102696.22
2023-03-01T12:02:14.076Z,102686.91
2023-03-01T12:05:16.556Z,102674.78
2023-03-01T12:07:59.572Z,102682.91
2023-03-01T12:10:30.365Z,102679.66
2023-03-01T12:13:39.669Z,102674.66
2023-03-01T12:17:03.390Z,102663.50
2023-03-01T12:20:20.861Z,102660.22
2023-03-01T12:23:30.848Z,102663.94
2023-03-01T12:26:30.014Z,102665.03
2023-03-01T12:29:15.613Z,102660.97
2023-03-01T12:32:36.405Z,102656.66
2023-03-01T12:35:18.226Z,102655.88
2023-03-01T12:38:14.270Z,102648.09
2023-03-01T12:41:22.055Z,102645.59
2023-03-01T12:44:11.112Z,102640.63
2023-03-01T12:46:57.869Z,102639.09
2023-03-01T12:49:45.885Z,102629.56
2023-03-01T12:52:23.216Z,102625.56
2023-03-01T12:54:52.478Z,102621.31
2023-03-01T12:57:37.787Z,102630.31
2023-03-01T13:00:11.742Z,102633.97
2023-03-01T13:02:50.567Z,102619.25
2023-03-01T13:05:41.509Z,102624.56
2023-03-01T13:08:42.730Z,102614.88
2023-03-01T13:11:20.551Z,102620.19
2023-03-01T13:13:49.506Z,102622.97
2023-03-01T13:16:41.460Z,102620.56
2023-03-01T13:19:33.444Z,102612.78
2023-03-01T13:22:00.670Z,102624.22
2023-03-01T13:24:43.521Z,102614.63
2023-03-01T13:27:30.230Z,102609.47
2023-03-01T13:30:04.313Z,102607.75
2023-03-01T13:32:44.818Z,102601.66
2023-03-01T13:35:20.937Z,102599.19
2023-03-01T13:37:48.238Z,102592.50
2023-03-01T13:40:19.417Z,102581.41
2023-03-01T13:42:56.403Z,102577.09
2023-03-01T13:45:40.768Z,102577.31
2023-03-01T13:48:23.784Z,102585.50
2023-03-01T13:51:01.691Z,102577.91
2023-03-01T13:53:38.219Z,102579.00
2023-03-01T13:56:34.713Z,102570.50
2023-03-01T13:59:07.096Z,102583.78
2023-03-01T14:01:37.139Z,102576.16
2023-03-01T14:04:24.272Z,102574.44
2023-03-01T14:06:51.169Z,102571.81
2023-03-01T14:09:26.699Z,102567.22
2023-03-01T14:12:45.694Z,102566.66
2023-03-01T14:15:49.091Z,102560.97
2023-03-01T14:18:31.116Z,102567.00
2023-03-01T14:20:58.755Z,102567.78
2023-03-01T14:23:27.228Z,102566.84
2023-03-01T14:25:56.775Z,102566.16
2023-03-01T14:28:31.026Z,102564.56
2023-03-01T14:31:00.831Z,102572.50
2023-03-01T14:33:42.150Z,102565.72
2023-03-01T14:36:14.226Z,102563.28
2023-03-01T14:38:46.884Z,102565.88
2023-03-01T14:41:24.528Z,102558.78
2023-03-01T14:43:58.926Z,102557.75
2023-03-01T14:46:35.506Z,102547.25
2023-03-01T14:49:07.472Z,102552.53
2023-03-01T14:51:42.953Z,102552.47
2023-03-01T14:54:44.508Z,102547.25
2023-03-01T14:57:22.757Z,102540.28
2023-03-01T14:59:53.901Z,102544.97
2023-03-01T15:02:25.083Z,102540.66
2023-03-01T15:04:57.682Z,102539.88
2023-03-01T15:07:32.253Z,102545.09
2023-03-01T15:10:00.636Z,102545.31
2023-03-01T15:12:30.150Z,102538.28
2023-03-01T15:15:04.393Z,102545.16
2023-03-01T15:17:35.510Z,102544.28
2023-03-01T15:20:07.902Z,102542.56
2023-03-01T15:22:36.167Z,102543.53
2023-03-01T15:25:03.106Z,102539.88
2023-03-01T15:27:29.999Z,102546.91
2023-03-01T15:30:00.986Z,102547.84
2023-03-01T15:32:40.963Z,102544.38
2023-03-01T15:35:44.048Z,102543.31
2023-03-01T15:38:33.400Z,102546.47
2023-03-01T15:41:21.072Z,102542.63
2023-03-01T15:43:48.081Z,102540.69
2023-03-01T15:46:36.169Z,102531.84
2023-03-01T15:49:06.934Z,102532.66
2023-03-01T15:51:38.301Z,102526.56
2023-03-01T15:54:27.524Z,102536.09
2023-03-01T15:56:54.533Z,102528.97
2023-03-01T15:59:23.192Z,102525.41
2023-03-01T16:01:50.393Z,102529.00
2023-03-01T16:04:23.798Z,102527.25
2023-03-01T16:06:55.105Z,102526.28
2023-03-01T16:09:26.597Z,102522.56
2023-03-01T16:11:54.538Z,102517.38
2023-03-01T16:14:21.921Z,102524.31
2023-03-01T16:16:49.757Z,102511.00
2023-03-01T16:19:17.297Z,102517.28
2023-03-01T16:21:47.550Z,102512.91
2023-03-01T16:24:15.558Z,102513.63
2023-03-01T16:26:43.205Z,102511.78
2023-03-01T16:29:10.503Z,102527.28
2023-03-01T16:31:37.662Z,102514.00
2023-03-01T16:34:04.971Z,102513.00
2023-03-01T16:36:31.934Z,102514.59
2023-03-01T16:39:01.565Z,102512.72
2023-03-01T16:41:29.232Z,102509.81
2023-03-01T16:43:56.657Z,102507.00
2023-03-01T16:46:31.408Z,102503.19
2023-03-01T16:48:58.427Z,102497.69
2023-03-01T16:51:26.083Z,102495.69
2023-03-01T16:53:53.539Z,102495.44
2023-03-01T16:56:20.599Z,102489.94
2023-03-01T16:58:47.561Z,102488.00
2023-03-01T17:01:20.718Z,102505.88
2023-03-01T17:03:49.624Z,102504.75
2023-03-01T17:06:21.387Z,102517.44
2023-03-01T17:08:48.398Z,102505.97
2023-03-01T17:11:18.838Z,102511.63
2023-03-01T17:13:46.445Z,102510.47
2023-03-01T17:16:17.723Z,102511.53
2023-03-01T17:18:45.109Z,102510.13
2023-03-01T17:21:12.984Z,102521.63
2023-03-01T17:23:44.149Z,102525.41
2023-03-01T17:26:11.366Z,102524.31
2023-03-01T17:28:38.763Z,102522.34
2023-03-01T17:31:07.194Z,102527.22
2023-03-01T17:33:34.522Z,102524.34
2023-03-01T17:36:01.968Z,102524.00
2023-03-01T17:38:28.952Z,102520.38
2023-03-01T17:40:59.202Z,102524.31
2023-03-01T17:43:26.128Z,102536.63
2023-03-01T17:45:54.607Z,102529.16
2023-03-01T17:48:21.694Z,102551.31
2023-03-01T17:50:48.625Z,102554.06
2023-03-01T17:53:15.747Z,102555.13
2023-03-01T17:55:44.263Z,102561.34
2023-03-01T17:58:14.502Z,102563.47
2023-03-01T18:00:41.661Z,102564.00
2023-03-01T18:03:08.542Z,102559.25
2023-03-01T18:05:37.878Z,102560.88
2023-03-01T18:08:05.389Z,102562.44
2023-03-01T18:10:34.372Z,102562.28
2023-03-01T18:13:01.271Z,102564.03
2023-03-01T18:15:28.926Z,102577.06
2023-03-01T18:17:56.011Z,102568.41
2023-03-01T18:20:22.967Z,102564.69
2023-03-01T18:22:50.894Z,102558.00
2023-03-01T18:25:17.818Z,102561.78
2023-03-01T18:27:44.731Z,102560.41
2023-03-01T18:30:13.021Z,102575.28
2023-03-01T18:32:39.915Z,102551.03
2023-03-01T18:35:08.237Z,102554.59
2023-03-01T18:37:35.211Z,102553.72
2023-03-01T18:40:02.160Z,102559.78
2023-03-01T18:42:29.102Z,102555.41
2023-03-01T18:44:55.983Z,102569.97
2023-03-01T18:47:22.875Z,102581.97
2023-03-01T18:49:49.764Z,102586.47
2023-03-01T18:52:16.721Z,102589.28
2023-03-01T18:54:44.667Z,102582.00
2023-03-01T18:57:11.563Z,102586.19
2023-03-01T18:59:38.462Z,102596.53
2023-03-01T19:02:05.405Z,102590.44
2023-03-01T19:04:32.446Z,102586.09
2023-03-01T19:07:02.099Z,102583.41
2023-03-01T19:09:29.132Z,102585.13
2023-03-01T19:11:58.819Z,102581.56
2023-03-01T19:14:25.813Z,102590.84
2023-03-01T19:16:53.006Z,102587.28
2023-03-01T19:19:19.916Z,102585.44
2023-03-01T19:21:56.010Z,102584.34
2023-03-01T19:24:31.518Z,102594.53
2023-03-01T19:26:58.537Z,102590.00
2023-03-01T19:29:26.217Z,102590.56
2023-03-01T19:31:53.169Z,102587.00
2023-03-01T19:34:22.766Z,102585.13
2023-03-01T19:36:49.695Z,102590.09
2023-03-01T19:39:16.719Z,102587.13
2023-03-01T19:41:44.763Z,102589.56
2023-03-01T19:44:12.426Z,102601.34
2023-03-01T19:46:40.041Z,102603.56
2023-03-01T19:49:07.748Z,102577.69
2023-03-01T19:51:36.458Z,102601.38
2023-03-01T19:54:05.469Z,102595.84
2023-03-01T19:56:32.636Z,102600.66
2023-03-01T19:59:00.665Z,102597.91
2023-03-01T20:01:29.682Z,102595.06
2023-03-01T20:03:56.736Z,102599.16
2023-03-01T20:06:25.556Z,102602.38
2023-03-01T20:08:53.340Z,102584.59
2023-03-01T20:11:21.238Z,102589.66
2023-03-01T20:13:48.144Z,102595.53
2023-03-01T20:16:20.088Z,102602.09
2023-03-01T20:18:47.069Z,102603.63
2023-03-01T20:21:23.515Z,102605.13
2023-03-01T20:23:51.584Z,102608.25
2023-03-01T20:26:21.646Z,102598.53
2023-03-01T20:28:51.457Z,102602.53
2023-03-01T20:31:21.579Z,102597.09
2023-03-01T20:33:48.813Z,102602.00
2023-03-01T20:36:15.785Z,102606.06
2023-03-01T20:38:42.758Z,102613.53
2023-03-01T20:41:13.962Z,102610.72
2023-03-01T20:43:43.610Z,102613.00
2023-03-01T20:46:13.116Z,102608.34
2023-03-01T20:48:43.430Z,102611.53
2023-03-01T20:51:12.296Z,102605.22
2023-03-01T20:53:39.626Z,102610.97
2023-03-01T20:56:09.907Z,102610.78
2023-03-01T20:58:36.736Z,102606.25
2023-03-01T21:01:07.127Z,102607.81
2023-03-01T21:03:34.780Z,102618.13
2023-03-01T21:06:04.108Z,102611.22
2023-03-01T21:08:31.323Z,102613.78
2023-03-01T21:10:58.327Z,102615.56
2023-03-01T21:13:27.607Z,102615.56
2023-03-01T21:16:07.806Z,102614.78
2023-03-01T21:18:36.818Z,102608.63
2023-03-01T21:21:13.224Z,102614.97
2023-03-01T21:23:41.720Z,102616.94
2023-03-01T21:26:25.362Z,102610.91
2023-03-01T21:28:57.868Z,102610.78
2023-03-01T21:31:28.961Z,102613.19
2023-03-01T21:33:59.816Z,102610.41
2023-03-01T21:36:29.199Z,102606.94
2023-03-01T21:38:56.725Z,102611.63
2023-03-01T21:41:30.563Z,102600.78
2023-03-01T21:44:03.228Z,102594.75
2023-03-01T21:46:34.338Z,102602.59
2023-03-01T21:49:02.574Z,102600.59
2023-03-01T21:51:30.528Z,102589.53
2023-03-01T21:53:59.459Z,102589.88
2023-03-01T21:56:29.696Z,102592.28
2023-03-01T21:58:58.624Z,102585.25
2023-03-01T22:01:27.829Z,102588.03
2023-03-01T22:03:56.538Z,102570.78
2023-03-01T22:06:35.008Z,102583.47
2023-03-01T22:09:06.750Z,102583.16
2023-03-01T22:11:37.842Z,102591.78
2023-03-01T22:14:04.924Z,102597.03
2023-03-01T22:16:35.293Z,102596.63
2023-03-01T22:19:03.789Z,102594.94
2023-03-01T22:21:30.859Z,102603.47
2023-03-01T22:23:57.990Z,102604.34
2023-03-01T22:26:31.160Z,102606.22
2023-03-01T22:29:01.732Z,102613.41
2023-03-01T22:31:29.314Z,102611.34
2023-03-01T22:33:58.168Z,102604.00
2023-03-01T22:36:25.808Z,102617.22
2023-03-01T22:38:59.294Z,102608.31
2023-03-01T22:41:38.414Z,102609.00
2023-03-01T22:44:05.464Z,102609.69
2023-03-01T22:46:32.929Z,102593.63
2023-03-01T22:49:00.138Z,102606.78
2023-03-01T22:51:31.348Z,102608.97
2023-03-01T22:53:58.437Z,102607.84
2023-03-01T22:56:29.365Z,102602.91
2023-03-01T22:59:03.982Z,102598.41
2023-03-01T23:01:31.808Z,102588.75
2023-03-01T23:03:58.759Z,102576.19
2023-03-01T23:06:25.667Z,102583.94
2023-03-01T23:08:55.175Z,102579.19
2023-03-01T23:11:24.026Z,102585.31
2023-03-01T23:13:51.714Z,102581.28
2023-03-01T23:16:19.040Z,102572.97
2023-03-01T23:18:46.276Z,102579.41
2023-03-01T23:21:16.875Z,102574.56
2023-03-01T23:23:46.378Z,102568.91
2023-03-01T23:26:15.238Z,102570.69
2023-03-01T23:28:42.633Z,102572.19
2023-03-01T23:31:13.814Z,102570.59
2023-03-01T23:33:44.372Z,102561.09
2023-03-01T23:36:20.734Z,102574.44
2023-03-01T23:38:50.206Z,102571.19
2023-03-01T23:41:20.672Z,102568.63
2023-03-01T23:43:50.754Z,102573.75
2023-03-01T23:46:20.428Z,102571.69
2023-03-01T23:48:48.053Z,102579.47
2023-03-01T23:51:17.649Z,102572.56
2023-03-01T23:53:54.436Z,102561.66
2023-03-01T23:56:33.000Z,102574.03
2023-03-01T23:59:03.425Z,102582.63
